首页
METAR-TAF:

METAR-TAF

机场 :

阿姆斯特丹史基浦機場

阿姆斯特丹, 荷兰

纬度: 52-18N, 经度: 004-46E, 海拔: -4米

当前天气观测

该预报发布于20分钟前的08:25 UTC
风速13节,风向西转西北
温度 19°C
湿度 78%
气压 1012 hPa
能见度10公里或以上
少量云层高于2000英尺

METAR: EHAM 140825Z 30013KT 9999 FEW020 19/15 Q1012 NOSIG

时间: 10:45 (08:45 UTC)

预报

该预报发布于3小时和56分钟前的04:49 UTC
预报有效从14日的 06点(UTC)到 15日的 12点(UTC)
风速13节,风向西转西北
能见度10公里或以上
散云层高于1800英尺
多云层高于3000英尺
几率 30%
从 14日的 06点(UTC)到 14日的 08点(UTC)
多云层高于1400英尺
成为
从 14日的 18点(UTC)到 14日的 21点(UTC)
风速5节,风向南转西南
少量云层高于4500英尺
几率 30% :
短暂存在
从 15日的 02点(UTC)到 15日的 07点(UTC)
能見度: 5000
多云层高于500英尺
轻雾
成为
从 15日的 06点(UTC)到 15日的 09点(UTC)
风速12节,风向西南
散云层高于1200英尺
多云层高于2000英尺

TAF: EHAM 140449Z 1406/1512 30013KT 9999 SCT018 BKN030 PROB30 1406/1408 BKN014 BECMG 1418/1421 20005KT FEW045 PROB30 TEMPO 1502/1507 5000 BR BKN005 BECMG 1506/1509 23012KT SCT012 BKN020

超过4000个机场的气象观测和天气预报(METAR&TAF报告)。

可查询的气象台以黄色和红色小点在地图上表示。

将鼠标移到小点上方,可查看气象台名称。

然后点击查看天气观测和预报。

如需切换地图:点击带黑十字的绿色按钮放大地图;点击带横线的绿色按钮缩小地图;或者点击绿色箭头查看邻近地区的地图。


METAR-TAF: